createdAt,value
2023-05-13T00:02:31.585Z,8.77
2023-05-13T00:05:17.489Z,8.53
2023-05-13T00:08:07.154Z,8.78
2023-05-13T00:10:52.736Z,8.74
2023-05-13T00:13:38.129Z,8.68
2023-05-13T00:16:25.740Z,8.10
2023-05-13T00:19:12.305Z,8.52
2023-05-13T00:21:58.056Z,8.50
2023-05-13T00:24:43.457Z,7.47
2023-05-13T00:27:28.731Z,7.57
2023-05-13T00:30:14.309Z,7.30
2023-05-13T00:33:00.065Z,8.31
2023-05-13T00:35:45.807Z,8.47
2023-05-13T00:38:31.195Z,8.50
2023-05-13T00:41:17.739Z,7.06
2023-05-13T00:44:03.120Z,7.13
2023-05-13T00:46:49.793Z,6.88
2023-05-13T00:49:35.288Z,7.99
2023-05-13T00:52:20.725Z,6.57
2023-05-13T00:55:07.252Z,7.68
2023-05-13T00:57:52.659Z,7.60
2023-05-13T01:00:47.057Z,7.65
2023-05-13T01:03:51.396Z,7.39
2023-05-13T01:06:48.128Z,7.69
2023-05-13T01:10:02.613Z,7.56
2023-05-13T01:12:53.210Z,6.55
2023-05-13T01:15:46.146Z,7.56
2023-05-13T01:18:37.655Z,7.96
2023-05-13T01:21:27.656Z,6.67
2023-05-13T01:24:13.555Z,7.89
2023-05-13T01:27:00.013Z,6.90
2023-05-13T01:29:45.816Z,6.68
2023-05-13T01:32:36.121Z,6.57
2023-05-13T01:35:23.243Z,6.37
2023-05-13T01:38:09.128Z,7.44
2023-05-13T01:40:56.677Z,7.05
2023-05-13T01:43:42.067Z,7.00
2023-05-13T01:46:27.788Z,6.35
2023-05-13T01:49:13.779Z,6.05
2023-05-13T01:51:59.048Z,6.13
2023-05-13T01:54:44.948Z,7.27
2023-05-13T01:57:32.719Z,7.35
2023-05-13T02:00:18.548Z,7.48
2023-05-13T02:03:07.672Z,6.82
2023-05-13T02:05:54.290Z,6.52
2023-05-13T02:08:39.735Z,7.59
2023-05-13T02:11:25.074Z,7.00
2023-05-13T02:14:10.614Z,7.74
2023-05-13T02:16:56.144Z,7.74
2023-05-13T02:19:41.518Z,6.57
2023-05-13T02:22:27.370Z,7.37
2023-05-13T02:25:12.993Z,6.80
2023-05-13T02:27:58.421Z,6.55
2023-05-13T02:30:45.025Z,7.59
2023-05-13T02:33:30.476Z,7.89
2023-05-13T02:36:16.090Z,7.87
2023-05-13T02:39:01.800Z,7.13
2023-05-13T02:41:48.561Z,7.86
2023-05-13T02:44:34.618Z,6.46
2023-05-13T02:47:21.008Z,7.82
2023-05-13T02:50:09.005Z,7.52
2023-05-13T02:52:55.765Z,7.55
2023-05-13T02:55:42.789Z,6.46
2023-05-13T02:58:27.979Z,5.48
2023-05-13T03:01:14.474Z,6.58
2023-05-13T03:03:59.901Z,7.34
2023-05-13T03:06:46.953Z,6.55
2023-05-13T03:09:32.528Z,7.50
2023-05-13T03:12:19.093Z,7.73
2023-05-13T03:15:04.748Z,7.85
2023-05-13T03:17:50.314Z,6.71
2023-05-13T03:20:37.277Z,7.73
2023-05-13T03:23:23.151Z,6.38
2023-05-13T03:26:10.937Z,7.72
2023-05-13T03:28:56.419Z,6.42
2023-05-13T03:31:41.817Z,6.51
2023-05-13T03:34:27.064Z,7.64
2023-05-13T03:37:12.783Z,6.31
2023-05-13T03:39:58.095Z,6.41
2023-05-13T03:42:44.546Z,7.03
2023-05-13T03:45:31.315Z,7.72
2023-05-13T03:48:21.655Z,6.63
2023-05-13T03:51:07.033Z,6.73
2023-05-13T03:53:52.491Z,6.99
2023-05-13T03:56:38.006Z,7.89
2023-05-13T03:59:23.972Z,8.11
2023-05-13T04:02:10.263Z,8.22
2023-05-13T04:04:55.692Z,8.42
2023-05-13T04:07:41.432Z,8.11
2023-05-13T04:10:26.994Z,8.27
2023-05-13T04:13:12.424Z,7.21
2023-05-13T04:15:58.117Z,7.22
2023-05-13T04:18:43.715Z,8.59
2023-05-13T04:21:29.367Z,8.55
2023-05-13T04:24:15.220Z,8.63
2023-05-13T04:27:01.509Z,8.63
2023-05-13T04:29:48.266Z,7.63
2023-05-13T04:32:33.792Z,7.55
2023-05-13T04:35:19.321Z,7.47
2023-05-13T04:38:09.323Z,9.02
2023-05-13T04:40:54.681Z,9.17
2023-05-13T04:43:47.494Z,8.06
2023-05-13T04:46:33.049Z,9.55
2023-05-13T04:49:18.623Z,9.71
2023-05-13T04:52:06.025Z,8.79
2023-05-13T04:54:52.510Z,10.09
2023-05-13T04:57:38.260Z,10.45
2023-05-13T05:00:24.175Z,10.75
2023-05-13T05:03:10.681Z,11.01
2023-05-13T05:05:56.806Z,10.42
2023-05-13T05:08:43.562Z,10.21
2023-05-13T05:11:29.432Z,11.24
2023-05-13T05:14:15.376Z,11.64
2023-05-13T05:17:00.844Z,11.72
2023-05-13T05:19:45.995Z,11.66
2023-05-13T05:22:35.212Z,11.85
2023-05-13T05:25:20.839Z,11.93
2023-05-13T05:28:06.292Z,11.99
2023-05-13T05:30:53.940Z,12.19
2023-05-13T05:33:44.261Z,12.51
2023-05-13T05:36:30.516Z,12.77
2023-05-13T05:39:16.118Z,12.52
2023-05-13T05:42:01.752Z,12.14
2023-05-13T05:44:47.659Z,12.38
2023-05-13T05:47:33.187Z,12.43
2023-05-13T05:50:18.459Z,13.53
2023-05-13T05:53:04.179Z,13.69
2023-05-13T05:55:53.073Z,12.67
2023-05-13T05:58:39.487Z,13.70
2023-05-13T06:01:25.043Z,13.66
2023-05-13T06:04:10.956Z,12.89
2023-05-13T06:06:56.792Z,14.09
2023-05-13T06:09:42.457Z,14.11
2023-05-13T06:12:27.772Z,14.01
2023-05-13T06:15:13.181Z,14.32
2023-05-13T06:17:58.980Z,13.36
2023-05-13T06:20:44.782Z,14.45
2023-05-13T06:23:30.171Z,13.56
2023-05-13T06:26:15.634Z,14.77
2023-05-13T06:29:01.147Z,14.86
2023-05-13T06:31:46.531Z,14.74
2023-05-13T06:34:32.073Z,13.88
2023-05-13T06:37:18.684Z,15.10
2023-05-13T06:40:04.947Z,15.27
2023-05-13T06:42:56.157Z,14.21
2023-05-13T06:45:48.793Z,14.81
2023-05-13T06:48:34.694Z,14.91
2023-05-13T06:51:19.934Z,15.15
2023-05-13T06:54:05.953Z,15.18
2023-05-13T06:56:52.292Z,15.21
2023-05-13T06:59:37.814Z,15.23
2023-05-13T07:02:23.237Z,14.99
2023-05-13T07:05:11.395Z,14.06
2023-05-13T07:07:57.020Z,15.22
2023-05-13T07:10:42.427Z,14.31
2023-05-13T07:13:27.832Z,14.32
2023-05-13T07:16:14.835Z,14.58
2023-05-13T07:19:00.623Z,15.63
2023-05-13T07:21:45.816Z,15.17
2023-05-13T07:24:31.193Z,16.16
2023-05-13T07:27:16.812Z,15.68
2023-05-13T07:30:02.499Z,16.39
2023-05-13T07:32:48.332Z,16.54
2023-05-13T07:35:34.182Z,16.70
2023-05-13T07:38:19.546Z,15.89
2023-05-13T07:41:05.277Z,16.71
2023-05-13T07:43:50.823Z,16.68
2023-05-13T07:46:36.184Z,17.13
2023-05-13T07:49:21.794Z,17.19
2023-05-13T07:52:07.844Z,17.00
2023-05-13T07:54:54.740Z,16.22
2023-05-13T07:57:40.564Z,16.42
2023-05-13T08:00:26.237Z,16.38
2023-05-13T08:03:12.403Z,16.97
2023-05-13T08:05:57.942Z,16.59
2023-05-13T08:08:43.280Z,16.71
2023-05-13T08:11:29.083Z,17.47
2023-05-13T08:14:14.413Z,16.94
2023-05-13T08:16:59.786Z,18.07
2023-05-13T08:19:46.074Z,18.14
2023-05-13T08:22:32.494Z,17.32
2023-05-13T08:25:17.950Z,18.20
2023-05-13T08:28:03.877Z,18.01
2023-05-13T08:30:49.198Z,17.23
2023-05-13T08:33:34.527Z,18.02
2023-05-13T08:36:21.845Z,18.25
2023-05-13T08:39:07.866Z,18.41
2023-05-13T08:41:57.684Z,17.42
2023-05-13T08:44:44.328Z,17.11
2023-05-13T08:47:36.684Z,18.47
2023-05-13T08:50:23.085Z,17.48
2023-05-13T08:53:11.512Z,18.48
2023-05-13T08:55:57.319Z,17.68
2023-05-13T08:58:42.839Z,17.71
2023-05-13T09:01:29.957Z,17.69
2023-05-13T09:04:15.744Z,17.94
2023-05-13T09:07:01.663Z,18.49
2023-05-13T09:09:47.561Z,18.66
2023-05-13T09:12:51.759Z,18.65
2023-05-13T09:15:41.927Z,18.58
2023-05-13T09:18:32.256Z,17.50
2023-05-13T09:21:25.421Z,18.53
2023-05-13T09:24:18.769Z,17.46
2023-05-13T09:27:04.274Z,18.34
2023-05-13T09:29:59.817Z,17.72
2023-05-13T09:32:45.162Z,18.65
2023-05-13T09:35:32.565Z,18.25
2023-05-13T09:38:26.935Z,18.65
2023-05-13T09:41:12.536Z,18.24
2023-05-13T09:43:58.719Z,18.64
2023-05-13T09:46:44.519Z,18.23
2023-05-13T09:49:31.765Z,18.84
2023-05-13T09:52:17.511Z,17.95
2023-05-13T09:55:06.800Z,18.87
2023-05-13T09:57:53.485Z,18.96
2023-05-13T10:00:43.618Z,19.01
2023-05-13T10:03:29.947Z,18.82
2023-05-13T10:06:22.356Z,17.98
2023-05-13T10:09:10.109Z,18.00
2023-05-13T10:11:56.372Z,19.13
2023-05-13T10:14:43.411Z,19.20
2023-05-13T10:17:31.298Z,19.23
2023-05-13T10:20:17.514Z,18.70
2023-05-13T10:23:04.298Z,19.35
2023-05-13T10:25:55.867Z,17.96
2023-05-13T10:28:43.630Z,19.24
2023-05-13T10:31:31.721Z,18.11
2023-05-13T10:34:17.468Z,19.07
2023-05-13T10:37:30.746Z,19.04
2023-05-13T10:40:38.998Z,19.02
2023-05-13T10:43:31.071Z,18.27
2023-05-13T10:46:19.289Z,19.00
2023-05-13T10:49:04.565Z,18.97
2023-05-13T10:51:50.138Z,19.01
2023-05-13T10:54:41.978Z,19.01
2023-05-13T10:57:29.645Z,18.92
2023-05-13T11:00:17.039Z,19.11
2023-05-13T11:03:30.041Z,19.12
2023-05-13T11:06:19.494Z,19.12
2023-05-13T11:09:12.121Z,18.07
2023-05-13T11:12:00.180Z,18.14
2023-05-13T11:14:45.818Z,19.01
2023-05-13T11:17:32.038Z,17.70
2023-05-13T11:20:19.362Z,19.02
2023-05-13T11:23:05.822Z,17.94
2023-05-13T11:26:16.258Z,19.11
2023-05-13T11:29:08.051Z,19.15
2023-05-13T11:31:53.588Z,18.66
2023-05-13T11:34:50.562Z,18.25
2023-05-13T11:37:43.366Z,19.31
2023-05-13T11:40:32.861Z,18.23
2023-05-13T11:43:22.263Z,18.33
2023-05-13T11:46:10.307Z,18.30
2023-05-13T11:48:55.839Z,18.80
2023-05-13T11:51:41.455Z,19.38
2023-05-13T11:54:27.409Z,19.41
2023-05-13T11:57:32.873Z,19.27
2023-05-13T12:00:31.048Z,19.08
2023-05-13T12:03:16.956Z,19.23
2023-05-13T12:06:03.278Z,19.20
2023-05-13T12:08:48.600Z,19.17
2023-05-13T12:11:34.103Z,19.45
2023-05-13T12:14:22.895Z,18.44
2023-05-13T12:17:08.594Z,18.22
2023-05-13T12:20:13.706Z,19.49
2023-05-13T12:23:01.637Z,18.37
2023-05-13T12:25:50.952Z,18.81
2023-05-13T12:28:36.487Z,19.54
2023-05-13T12:31:21.866Z,18.66
2023-05-13T12:34:07.241Z,19.50
2023-05-13T12:36:58.315Z,19.48
2023-05-13T12:39:48.465Z,19.07
2023-05-13T12:42:34.861Z,19.53
2023-05-13T12:45:21.695Z,19.53
2023-05-13T12:48:11.310Z,19.57
2023-05-13T12:50:59.129Z,19.55
2023-05-13T12:53:46.052Z,18.19
2023-05-13T12:56:31.509Z,19.50
2023-05-13T12:59:19.094Z,19.27
2023-05-13T13:02:04.813Z,19.02
2023-05-13T13:04:51.082Z,18.32
2023-05-13T13:07:38.079Z,19.44
2023-05-13T13:10:23.541Z,18.48
2023-05-13T13:13:08.950Z,19.52
2023-05-13T13:15:54.348Z,19.26
2023-05-13T13:18:40.358Z,19.42
2023-05-13T13:21:25.685Z,19.40
2023-05-13T13:24:11.185Z,19.38
2023-05-13T13:26:56.692Z,19.35
2023-05-13T13:29:43.284Z,18.77
2023-05-13T13:32:29.306Z,19.33
2023-05-13T13:35:14.939Z,19.36
2023-05-13T13:38:00.663Z,19.42
2023-05-13T13:40:46.489Z,19.50
2023-05-13T13:43:32.473Z,19.56
2023-05-13T13:46:17.873Z,19.43
2023-05-13T13:49:10.176Z,19.50
2023-05-13T13:52:02.340Z,19.59
2023-05-13T13:54:48.852Z,19.54
2023-05-13T13:57:34.187Z,19.35
2023-05-13T14:00:19.646Z,18.45
2023-05-13T14:03:05.088Z,19.52
2023-05-13T14:05:51.901Z,19.30
2023-05-13T14:08:37.005Z,19.36
2023-05-13T14:11:22.505Z,19.35
2023-05-13T14:14:08.484Z,19.49
2023-05-13T14:16:55.109Z,19.43
2023-05-13T14:19:42.391Z,19.37
2023-05-13T14:22:28.007Z,18.38
2023-05-13T14:25:14.214Z,18.38
2023-05-13T14:27:59.696Z,19.36
2023-05-13T14:30:45.101Z,19.40
2023-05-13T14:33:31.252Z,19.40
2023-05-13T14:36:17.045Z,18.43
2023-05-13T14:39:02.510Z,18.93
2023-05-13T14:41:47.874Z,18.38
2023-05-13T14:44:33.423Z,18.22
2023-05-13T14:47:18.875Z,18.18
2023-05-13T14:50:05.439Z,19.30
2023-05-13T14:52:52.305Z,19.09
2023-05-13T14:55:37.693Z,18.39
2023-05-13T14:58:23.389Z,18.25
2023-05-13T15:01:08.948Z,18.57
2023-05-13T15:03:55.457Z,18.74
2023-05-13T15:06:41.012Z,17.86
2023-05-13T15:09:26.402Z,18.61
2023-05-13T15:12:12.031Z,19.13
2023-05-13T15:14:58.588Z,18.42
2023-05-13T15:17:44.068Z,17.98
2023-05-13T15:20:30.026Z,19.06
2023-05-13T15:23:15.269Z,18.97
2023-05-13T15:26:00.678Z,18.08
2023-05-13T15:28:46.017Z,19.00
2023-05-13T15:31:32.226Z,17.86
2023-05-13T15:34:19.031Z,17.96
2023-05-13T15:37:04.569Z,17.79
2023-05-13T15:39:49.894Z,18.79
2023-05-13T15:42:35.255Z,17.86
2023-05-13T15:45:20.832Z,19.02
2023-05-13T15:48:07.177Z,18.97
2023-05-13T15:50:53.382Z,18.40
2023-05-13T15:53:40.067Z,18.97
2023-05-13T15:56:26.253Z,18.94
2023-05-13T15:59:12.334Z,18.94
2023-05-13T16:01:58.689Z,17.92
2023-05-13T16:04:44.730Z,17.98
2023-05-13T16:07:29.864Z,18.73
2023-05-13T16:10:15.529Z,18.82
2023-05-13T16:13:02.500Z,18.50
2023-05-13T16:15:47.842Z,18.53
2023-05-13T16:18:33.629Z,18.27
2023-05-13T16:21:19.528Z,18.64
2023-05-13T16:24:06.997Z,18.68
2023-05-13T16:26:52.687Z,18.68
2023-05-13T16:29:37.987Z,17.53
2023-05-13T16:32:23.924Z,17.87
2023-05-13T16:35:11.747Z,17.55
2023-05-13T16:37:56.955Z,17.47
2023-05-13T16:40:43.413Z,18.26
2023-05-13T16:43:29.118Z,18.35
2023-05-13T16:46:15.449Z,18.50
2023-05-13T16:49:02.817Z,18.28
2023-05-13T16:51:47.839Z,18.26
2023-05-13T16:54:33.321Z,18.39
2023-05-13T16:57:19.911Z,18.45
2023-05-13T17:00:06.338Z,18.61
2023-05-13T17:02:52.512Z,18.70
2023-05-13T17:05:38.660Z,18.69
2023-05-13T17:08:24.560Z,17.49
2023-05-13T17:11:16.618Z,18.67
2023-05-13T17:14:03.218Z,18.05
2023-05-13T17:16:49.117Z,17.72
2023-05-13T17:19:34.888Z,17.51
2023-05-13T17:22:20.692Z,17.51
2023-05-13T17:25:06.604Z,16.80
2023-05-13T17:27:52.108Z,17.78
2023-05-13T17:30:37.604Z,18.53
2023-05-13T17:33:23.516Z,17.93
2023-05-13T17:36:09.007Z,18.40
2023-05-13T17:38:54.437Z,18.30
2023-05-13T17:41:40.149Z,18.20
2023-05-13T17:44:26.164Z,18.09
2023-05-13T17:47:11.750Z,18.02
2023-05-13T17:49:57.187Z,17.37
2023-05-13T17:52:42.530Z,17.85
2023-05-13T17:55:28.049Z,17.90
2023-05-13T17:58:13.497Z,16.71
2023-05-13T18:00:58.985Z,17.83
2023-05-13T18:03:44.519Z,17.86
2023-05-13T18:06:29.933Z,17.55
2023-05-13T18:09:15.657Z,17.67
2023-05-13T18:12:01.113Z,16.63
2023-05-13T18:14:46.721Z,16.95
2023-05-13T18:17:32.359Z,17.14
2023-05-13T18:20:18.684Z,17.66
2023-05-13T18:23:04.280Z,17.59
2023-05-13T18:25:55.995Z,17.00
2023-05-13T18:28:44.915Z,17.48
2023-05-13T18:31:34.647Z,17.40
2023-05-13T18:34:20.426Z,16.47
2023-05-13T18:37:06.532Z,16.29
2023-05-13T18:39:51.974Z,16.16
2023-05-13T18:42:37.451Z,16.96
2023-05-13T18:45:22.869Z,16.22
2023-05-13T18:48:08.319Z,15.71
2023-05-13T18:50:53.627Z,16.76
2023-05-13T18:53:39.442Z,15.76
2023-05-13T18:56:24.829Z,16.71
2023-05-13T18:59:10.376Z,16.56
2023-05-13T19:01:56.157Z,15.43
2023-05-13T19:04:42.099Z,16.53
2023-05-13T19:07:27.852Z,16.46
2023-05-13T19:10:13.687Z,15.21
2023-05-13T19:12:59.250Z,15.31
2023-05-13T19:15:46.726Z,15.31
2023-05-13T19:18:32.398Z,16.16
2023-05-13T19:21:18.052Z,15.01
2023-05-13T19:24:03.829Z,16.06
2023-05-13T19:26:49.833Z,16.01
2023-05-13T19:29:35.428Z,15.71
2023-05-13T19:32:21.074Z,15.38
2023-05-13T19:35:08.425Z,15.73
2023-05-13T19:37:56.034Z,14.37
2023-05-13T19:40:41.722Z,14.39
2023-05-13T19:43:27.307Z,15.54
2023-05-13T19:46:12.679Z,14.19
2023-05-13T19:48:58.481Z,15.35
2023-05-13T19:51:43.858Z,14.01
2023-05-13T19:54:29.329Z,13.79
2023-05-13T19:57:15.233Z,15.01
2023-05-13T20:00:00.574Z,14.46
2023-05-13T20:02:46.385Z,14.83
2023-05-13T20:05:32.051Z,13.53
2023-05-13T20:08:17.569Z,13.75
2023-05-13T20:11:03.234Z,14.68
2023-05-13T20:13:48.821Z,14.58
2023-05-13T20:16:34.523Z,14.51
2023-05-13T20:19:20.830Z,14.22
2023-05-13T20:22:06.719Z,14.29
2023-05-13T20:24:54.364Z,14.24
2023-05-13T20:27:39.626Z,14.18
2023-05-13T20:30:26.172Z,14.11
2023-05-13T20:33:13.399Z,14.08
2023-05-13T20:35:59.413Z,13.65
2023-05-13T20:38:46.757Z,13.87
2023-05-13T20:41:32.820Z,12.81
2023-05-13T20:44:18.459Z,12.44
2023-05-13T20:47:05.096Z,12.37
2023-05-13T20:49:51.731Z,12.44
2023-05-13T20:52:37.240Z,13.50
2023-05-13T20:55:23.070Z,12.65
2023-05-13T20:58:08.362Z,13.68
2023-05-13T21:00:54.129Z,12.77
2023-05-13T21:03:39.469Z,12.81
2023-05-13T21:06:25.067Z,13.87
2023-05-13T21:09:10.691Z,13.88
2023-05-13T21:11:56.872Z,13.76
2023-05-13T21:14:42.327Z,13.67
2023-05-13T21:17:28.418Z,13.06
2023-05-13T21:20:14.423Z,13.43
2023-05-13T21:23:01.273Z,12.14
2023-05-13T21:25:46.978Z,13.17
2023-05-13T21:28:32.530Z,11.97
2023-05-13T21:31:17.987Z,13.09
2023-05-13T21:34:03.477Z,12.04
2023-05-13T21:36:49.353Z,12.90
2023-05-13T21:39:34.678Z,12.27
2023-05-13T21:42:20.946Z,13.09
2023-05-13T21:45:07.465Z,13.36
2023-05-13T21:47:53.212Z,12.97
2023-05-13T21:50:38.850Z,13.32
2023-05-13T21:53:24.668Z,13.30
2023-05-13T21:56:10.818Z,11.97
2023-05-13T21:58:56.250Z,13.17
2023-05-13T22:01:41.562Z,12.61
2023-05-13T22:04:27.060Z,13.14
2023-05-13T22:07:12.882Z,13.11
2023-05-13T22:09:58.243Z,13.02
2023-05-13T22:12:43.754Z,12.91
2023-05-13T22:15:29.043Z,12.76
2023-05-13T22:18:15.093Z,11.29
2023-05-13T22:21:00.861Z,11.94
2023-05-13T22:23:46.420Z,12.16
2023-05-13T22:26:32.967Z,12.13
2023-05-13T22:29:18.603Z,11.81
2023-05-13T22:32:04.085Z,12.12
2023-05-13T22:34:50.235Z,11.16
2023-05-13T22:37:35.580Z,12.34
2023-05-13T22:40:21.114Z,11.15
2023-05-13T22:43:06.943Z,11.60
2023-05-13T22:45:52.477Z,10.97
2023-05-13T22:48:37.987Z,11.49
2023-05-13T22:51:23.301Z,11.22
2023-05-13T22:54:08.824Z,10.86
2023-05-13T22:56:54.230Z,12.21
2023-05-13T22:59:39.540Z,10.91
2023-05-13T23:02:25.117Z,11.22
2023-05-13T23:05:10.665Z,11.78
2023-05-13T23:07:56.403Z,12.17
2023-05-13T23:10:41.883Z,12.19
2023-05-13T23:13:27.708Z,12.16
2023-05-13T23:16:13.150Z,11.82
2023-05-13T23:18:59.023Z,11.30
2023-05-13T23:21:44.602Z,11.33
2023-05-13T23:24:29.936Z,11.81
2023-05-13T23:27:15.452Z,10.05
2023-05-13T23:30:01.125Z,11.58
2023-05-13T23:32:46.476Z,10.91
2023-05-13T23:35:32.280Z,11.51
2023-05-13T23:38:17.793Z,10.49
2023-05-13T23:41:03.544Z,11.26
2023-05-13T23:43:49.292Z,10.41
2023-05-13T23:46:34.444Z,10.14
2023-05-13T23:49:20.290Z,10.40
2023-05-13T23:52:05.838Z,11.40
2023-05-13T23:54:51.479Z,10.18
2023-05-13T23:57:36.907Z,11.32
